Latest Weather Observations for Camooweal

IDQ60801

Issued at 1:03 pm EST Tuesday 30 August 2016 (issued every 30 minutes, with the page automatically refreshed every 10 minutes)

About weather observations | Map of weather stations | Latest weather observations for QLD | Other Formats
Station Details ID: 037010 Name: CAMOOWEAL TOWNSHIP Lat: -19.92 Lon: 138.12 Height: 231.2 m
Data from the previous 72 hours. | See also: Recent months at Camooweal
Date/Time
EST
Temp
°C
App
Temp
°C
Dew
Point
°C
Rel
Hum
%
Delta-T
°C
Wind Press
QNH
hPa
Press
MSL
hPa
Rain since
9am
mm
Dir  Spd
km/h
Gust
km/h
Spd
kts
Gust
kts
30/01:00pm 30.5 26.3 12.4 33 10.7 NNE 26 37 14 20 1016.7 1016.0 0.0
30/12:30pm 30.6 26.4 12.5 33 10.8 NNE 26 37 14 20 1017.2 1016.5 0.0
30/12:00pm 29.5 24.1 12.9 36 9.9 NE 33 44 18 24 1017.5 1016.8 0.0
30/11:30am 29.9 25.7 13.6 36 9.8 NNE 28 43 15 23 1017.7 1017.1 0.0
30/11:00am 30.9 26.7 12.3 32 11.0 N 26 39 14 21 1018.0 1017.4 0.0
30/10:30am 29.6 24.9 12.1 34 10.3 NNE 28 41 15 22 1018.3 1017.7 0.0
30/10:16am 29.1 23.8 11.2 33 10.4 N 30 48 16 26 1018.3 1017.7 0.0
30/10:00am 28.9 25.0 13.2 38 9.4 NNE 26 37 14 20 1018.5 1017.9 0.0
30/09:30am 27.5 24.4 14.5 45 7.9 N 24 33 13 18 1018.6 1018.0 0.0
30/09:00am 26.1 23.8 14.6 49 6.9 N 20 28 11 15 1018.7 1018.1 0.0
30/08:30am 23.8 23.0 16.1 62 4.7 N 15 20 8 11 1018.4 1017.8 0.0
30/08:00am 22.1 22.9 17.2 74 3.0 N 9 15 5 8 1018.2 1017.6 0.0
30/07:30am 20.5 21.4 16.7 79 2.3 N 7 9 4 5 1017.9 1017.3 0.0
30/07:00am 20.6 21.1 16.6 78 2.4 N 9 11 5 6 1017.5 1016.8 0.0
30/06:30am 21.0 21.3 17.0 78 2.5 N 11 15 6 8 1017.0 1016.3 0.0
30/06:00am 21.1 21.8 17.1 78 2.5 N 9 13 5 7 1016.7 1016.0 0.0
30/05:30am 20.6 21.2 16.8 79 2.3 N 9 11 5 6 1016.1 1015.4 0.0
30/05:00am 20.6 21.2 16.8 79 2.3 N 9 11 5 6 1015.8 1015.1 0.0
30/04:30am 20.6 21.3 16.2 76 2.7 N 7 11 4 6 1015.4 1014.7 0.0
30/04:00am 21.0 21.4 16.2 74 2.9 N 9 13 5 7 1015.2 1014.5 0.0
30/03:30am 21.8 21.8 16.3 71 3.4 N 11 15 6 8 1014.9 1014.3 0.0
30/03:00am 22.4 22.4 16.2 68 3.8 N 11 17 6 9 1015.0 1014.4 0.0
30/02:30am 23.3 23.0 16.4 65 4.2 N 13 20 7 11 1015.3 1014.6 0.0
30/02:00am 23.7 22.9 16.2 63 4.6 NNE 15 24 8 13 1015.5 1014.8 0.0
30/01:30am 24.0 23.3 16.3 62 4.7 NNE 15 20 8 11 1015.6 1014.9 0.0
30/01:00am 24.3 23.1 16.0 60 5.1 NNE 17 26 9 14 1015.7 1015.0 0.0
30/12:30am 24.7 23.1 16.4 60 5.1 NNE 20 32 11 17 1015.7 1015.0 0.0
30/12:00am 24.7 23.5 16.2 59 5.2 NNE 17 24 9 13 1015.9 1015.2 0.0
 
Date/Time
EST
Temp
°C
App
Temp
°C
Dew
Point
°C
Rel
Hum
%
Delta-T
°C
Wind Press
QNH
hPa
Press
MSL
hPa
Rain since
9am
mm
Dir  Spd
km/h
Gust
km/h
Spd
kts
Gust
kts
29/11:30pm 25.0 23.4 15.9 57 5.6 NNE 19 26 10 14 1015.7 1015.0 0.0
29/11:00pm 25.0 23.7 14.8 53 6.2 NNE 15 24 8 13 1015.6 1014.9 0.0
29/10:30pm 25.3 24.0 14.7 51 6.4 NNE 15 22 8 12 1015.3 1014.6 0.0
29/10:00pm 25.9 24.5 14.4 49 6.9 NNE 15 20 8 11 1015.2 1014.5 0.0
29/09:30pm 26.8 24.6 14.5 46 7.4 NNE 19 26 10 14 1014.9 1014.3 0.0
29/09:00pm 27.1 24.9 14.5 46 7.6 NE 19 26 10 14 1014.6 1014.0 0.0
29/08:30pm 27.5 25.2 14.2 44 8.0 NE 19 26 10 14 1014.3 1013.7 0.0
29/08:00pm 27.8 25.7 13.7 42 8.5 NE 17 24 9 13 1013.8 1013.1 0.0
29/07:30pm 28.6 26.3 12.9 38 9.3 NNE 17 24 9 13 1013.5 1012.8 0.0
29/07:00pm 29.2 27.0 12.2 35 10.0 NNE 15 20 8 11 1013.1 1012.4 0.0
29/06:30pm 30.3 27.3 10.8 30 11.3 N 17 22 9 12 1012.8 1012.1 0.0
29/06:00pm 31.2 27.8 11.1 29 11.7 N 20 32 11 17 1012.6 1011.9 0.0
29/05:30pm 32.0 28.4 10.7 27 12.4 N 20 33 11 18 1012.5 1011.8 0.0
29/05:00pm 32.4 28.8 10.4 26 12.8 N 20 35 11 19 1012.4 1011.7 0.0
29/04:30pm 32.0 27.5 10.1 26 12.6 NNE 24 41 13 22 1012.3 1011.6 0.0
29/04:00pm 32.4 28.6 9.9 25 13.0 N 20 32 11 17 1012.5 1011.8 0.0
29/03:30pm 32.0 27.2 8.9 24 13.1 N 24 35 13 19 1012.8 1012.1 0.0
29/03:10pm 31.8 26.0 8.1 23 13.2 NNE 28 50 15 27 1013.0 1012.3 0.0
29/03:00pm 31.9 26.9 8.2 23 13.3 N 24 39 13 21 1013.1 1012.4 0.0
29/02:30pm 32.1 27.2 8.4 23 13.3 N 24 41 13 22 1013.5 1012.8 0.0
29/02:00pm 31.3 26.7 8.3 24 12.9 N 22 35 12 19 1014.1 1013.5 0.0
29/01:30pm 31.2 26.2 9.4 26 12.4 N 26 39 14 21 1014.6 1014.0 0.0
29/01:00pm 30.7 26.6 10.1 28 11.8 NNW 22 35 12 19 1014.9 1014.3 0.0
29/12:30pm 30.4 25.6 10.4 29 11.5 N 26 39 14 21 1015.5 1014.8 0.0
29/12:22pm 30.1 25.0 10.6 30 11.2 N 28 46 15 25 1015.6 1014.9 0.0
29/12:00pm 29.3 25.3 10.4 31 10.8 N 22 30 12 16 1016.2 1015.5 0.0
29/11:30am 28.5 25.1 11.1 34 10.0 N 20 28 11 15 1016.8 1016.1 0.0
29/11:00am 27.7 25.0 11.7 37 9.3 N 17 28 9 15 1017.2 1016.5 0.0
29/10:30am 27.2 24.7 12.4 40 8.7 NNW 17 24 9 13 1017.5 1016.8 0.0
29/10:00am 26.4 25.2 12.8 43 8.0 NNW 11 24 6 13 1017.6 1016.9 0.0
29/09:30am 24.8 24.3 13.7 50 6.6 NNW 9 13 5 7 1017.9 1017.3 0.0
29/09:00am 22.5 22.8 15.1 63 4.4 NNW 7 11 4 6 1017.8 1017.2 0.0
29/08:30am 19.5 19.7 14.7 74 2.8 NW 7 11 4 6 1017.6 1016.9 0.0
29/08:00am 17.1 17.2 14.0 82 1.8 NNW 6 9 3 5 1017.4 1016.7 0.0
29/07:30am 15.5 15.4 13.2 86 1.3 NNW 6 7 3 4 1017.1 1016.4 0.0
29/07:00am 14.9 14.6 12.8 87 1.2 NNW 6 7 3 4 1016.5 1015.8 0.0
29/06:30am 14.0 14.2 11.7 86 1.2 NW 2 6 1 3 1016.2 1015.5 0.0
29/06:00am 15.6 15.9 13.3 86 1.3 N 4 7 2 4 1015.7 1015.0 0.0
29/05:30am 15.2 14.7 12.0 81 1.8 NNW 6 7 3 4 1015.3 1014.6 0.0
29/05:00am 16.2 15.9 13.3 83 1.6 NNE 7 9 4 5 1015.2 1014.5 0.0
29/04:30am 15.9 15.6 12.6 81 1.8 NNE 6 7 3 4 1015.2 1014.5 0.0
29/04:00am 15.5 15.2 11.5 77 2.2 N 4 7 2 4 1015.2 1014.5 0.0
29/03:30am 16.7 16.2 12.0 74 2.6 NNE 6 7 3 4 1015.3 1014.6 0.0
29/03:00am 17.7 16.9 12.8 73 2.8 NNE 9 11 5 6 1015.5 1014.8 0.0
29/02:30am 18.2 17.2 12.2 68 3.4 N 9 13 5 7 1015.4 1014.7 0.0
29/02:00am 18.7 16.7 11.5 63 4.0 N 13 15 7 8 1015.4 1014.7 0.0
29/01:30am 19.8 17.9 11.8 60 4.5 NNE 13 20 7 11 1015.4 1014.7 0.0
29/01:00am 19.5 16.9 9.4 52 5.4 NE 13 15 7 8 1015.6 1014.9 0.0
29/12:30am 20.0 17.5 8.0 46 6.3 NE 11 15 6 8 1015.8 1015.1 0.0
29/12:00am 19.6 16.3 8.0 47 6.0 NE 15 20 8 11 1015.7 1015.0 0.0
 
Date/Time
EST
Temp
°C
App
Temp
°C
Dew
Point
°C
Rel
Hum
%
Delta-T
°C
Wind Press
QNH
hPa
Press
MSL
hPa
Rain since
9am
mm
Dir  Spd
km/h
Gust
km/h
Spd
kts
Gust
kts
28/11:30pm 19.4 16.8 7.8 47 6.0 ENE 11 13 6 7 1015.6 1014.9 0.0
28/11:00pm 20.4 18.2 7.7 44 6.6 NE 9 13 5 7 1015.6 1014.9 0.0
28/10:30pm 20.9 18.7 7.9 43 6.8 NE 9 11 5 6 1015.7 1015.0 0.0
28/10:00pm 20.4 18.2 7.7 44 6.6 ENE 9 11 5 6 1015.8 1015.1 0.0
28/09:30pm 21.4 18.7 7.3 40 7.3 ENE 11 13 6 7 1015.9 1015.2 0.0
28/09:00pm 22.1 19.3 7.1 38 7.8 NE 11 13 6 7 1015.8 1015.1 0.0
28/08:30pm 22.8 20.0 7.0 36 8.2 NE 11 13 6 7 1015.6 1014.9 0.0
28/08:00pm 23.6 21.2 6.8 34 8.8 NE 9 13 5 7 1015.5 1014.8 0.0
28/07:30pm 24.0 21.8 6.3 32 9.2 N 7 9 4 5 1015.2 1014.5 0.0
28/07:00pm 24.8 22.6 6.1 30 9.7 N 7 9 4 5 1014.8 1014.2 0.0
28/06:30pm 26.9 24.1 5.2 25 11.2 NNE 9 13 5 7 1014.3 1013.7 0.0
28/06:00pm 28.2 25.0 5.1 23 12.0 N 11 17 6 9 1014.1 1013.5 0.0
28/05:30pm 28.6 25.0 4.8 22 12.4 N 13 20 7 11 1014.1 1013.5 0.0
28/05:00pm 29.0 25.3 4.5 21 12.7 N 13 20 7 11 1014.1 1013.5 0.0
28/04:30pm 29.1 25.4 4.6 21 12.7 N 13 22 7 12 1014.2 1013.6 0.0
28/04:00pm 28.8 24.9 3.6 20 12.8 N 13 22 7 12 1014.2 1013.6 0.0
28/03:30pm 29.1 25.3 3.9 20 12.9 N 13 26 7 14 1014.5 1013.9 0.0
28/03:00pm 27.9 23.7 3.6 21 12.3 N 15 24 8 13 1014.8 1014.2 0.0
28/02:30pm 28.2 24.4 3.8 21 12.4 N 13 20 7 11 1015.4 1014.7 0.0
28/02:00pm 27.7 23.9 4.1 22 12.0 N 13 24 7 13 1016.0 1015.3 0.0
28/01:30pm 27.1 23.2 3.6 22 11.8 N 13 26 7 14 1016.5 1015.8 0.0
28/01:00pm 26.8 22.3 4.0 23 11.5 N 17 26 9 14 1017.1 1016.4 0.0
28/12:30pm 26.4 21.9 4.2 24 11.3 NNE 17 28 9 15 1017.7 1017.1 0.0
28/12:00pm 25.4 21.1 3.4 24 10.9 NNE 15 20 8 11 1018.3 1017.7 0.0
28/11:30am 24.7 20.0 3.4 25 10.5 NE 17 26 9 14 1018.9 1018.3 0.0
28/11:00am 23.7 19.1 3.6 27 9.9 NE 17 24 9 13 1019.2 1018.6 0.0
28/10:30am 22.9 18.3 3.9 29 9.4 ENE 17 24 9 13 1019.6 1019.0 0.0
28/10:00am 20.6 16.4 3.8 33 8.1 ENE 15 20 8 11 1019.8 1019.1 0.0
28/09:30am 18.6 14.5 4.4 39 6.9 ENE 15 20 8 11 1019.6 1019.0 0.0
28/09:00am 17.1 12.3 4.8 44 5.9 ENE 19 30 10 16 1019.5 1018.9 0.0
28/08:30am 15.9 12.4 5.5 50 5.0 ENE 13 20 7 11 1019.4 1018.8 0.0
28/08:00am 11.9 11.3 7.4 74 2.2 CALM 0 0 0 0 1019.2 1018.6 0.0
28/07:30am 10.4 8.3 5.8 73 2.1 E 6 6 3 3 1019.0 1018.4 0.0
28/07:00am 9.6 8.3 6.0 78 1.7 E 2 7 1 4 1019.0 1018.4 0.0
28/06:30am 9.5 7.2 5.7 77 1.8 ESE 7 9 4 5 1018.6 1018.0 0.0
28/06:00am 9.5 7.0 4.9 73 2.1 E 7 9 4 5 1018.3 1017.7 0.0
28/05:30am 11.4 9.1 5.5 67 2.8 ENE 7 9 4 5 1018.2 1017.6 0.0
28/05:00am 10.0 7.3 5.8 75 2.0 E 9 11 5 6 1018.0 1017.4 0.0
28/04:30am 10.1 7.9 5.1 71 2.3 E 6 7 3 4 1017.7 1017.1 0.0
28/04:00am 10.9 8.6 5.0 67 2.7 E 6 9 3 5 1017.7 1017.1 0.0
28/03:30am 10.9 8.4 5.0 67 2.7 ESE 7 9 4 5 1018.0 1017.4 0.0
28/03:00am 11.1 8.3 5.0 66 2.8 ESE 9 9 5 5 1018.2 1017.6 0.0
28/02:30am 11.4 8.2 5.1 65 2.9 ESE 11 13 6 7 1018.4 1017.8 0.0
28/02:00am 11.6 8.8 5.3 65 2.9 ESE 9 9 5 5 1018.7 1018.1 0.0
28/01:30am 12.2 9.4 5.1 62 3.3 ESE 9 11 5 6 1018.7 1018.1 0.0
28/01:00am 12.6 9.8 5.3 61 3.4 ESE 9 9 5 5 1019.1 1018.5 0.0
28/12:30am 13.1 10.6 4.8 57 3.9 SE 7 9 4 5 1019.2 1018.6 0.0
28/12:00am 13.5 10.6 4.4 54 4.2 SE 9 11 5 6 1019.4 1018.8 0.0
 
Date/Time
EST
Temp
°C
App
Temp
°C
Dew
Point
°C
Rel
Hum
%
Delta-T
°C
Wind Press
QNH
hPa
Press
MSL
hPa
Rain since
9am
mm
Dir  Spd
km/h
Gust
km/h
Spd
kts
Gust
kts
27/11:30pm 14.3 11.3 4.3 51 4.7 SE 9 13 5 7 1019.6 1019.0 0.0
27/11:00pm 14.6 11.3 4.3 50 4.8 SE 11 13 6 7 1019.8 1019.1 0.0
27/10:30pm 15.1 12.1 4.2 48 5.1 SE 9 13 5 7 1019.8 1019.1 0.0
27/10:00pm 15.5 12.4 3.6 45 5.5 SSE 9 13 5 7 1019.5 1018.9 0.0
27/09:30pm 16.3 12.8 3.4 42 6.0 SSE 11 13 6 7 1019.4 1018.8 0.0
27/09:00pm 16.3 13.1 3.0 41 6.1 SSE 9 13 5 7 1019.3 1018.7 0.0
27/08:30pm 17.4 14.1 2.2 36 7.0 SSE 9 11 5 6 1019.0 1018.4 0.0
27/08:00pm 18.2 14.0 1.7 33 7.5 SSE 13 17 7 9 1018.8 1018.2 0.0
27/07:30pm 18.9 15.8 1.4 31 8.0 ESE 7 9 4 5 1018.4 1017.8 0.0
27/07:00pm 19.7 15.7 0.7 28 8.6 SE 11 13 6 7 1018.3 1017.7 0.0
27/06:30pm 21.7 17.7 0.3 24 9.8 SE 11 15 6 8 1018.0 1017.4 0.0
27/06:00pm 23.3 18.9 0.4 22 10.6 SE 13 22 7 12 1017.9 1017.3 0.0
27/05:30pm 23.8 19.1 0.8 22 10.8 ESE 15 20 8 11 1018.0 1017.4 0.0
27/05:00pm 24.1 19.1 -0.9 19 11.3 ESE 15 24 8 13 1017.9 1017.3 0.0
27/04:30pm 24.1 19.2 -0.2 20 11.2 SE 15 20 8 11 1018.0 1017.4 0.0
27/04:00pm 24.0 18.4 -0.3 20 11.1 SE 19 26 10 14 1018.0 1017.4 0.0
27/03:30pm 24.2 19.1 0.5 21 11.1 SE 17 28 9 15 1018.1 1017.5 0.0
27/03:00pm 23.7 18.2 0.7 22 10.7 SE 19 33 10 18 1018.4 1017.8 0.0
27/02:30pm 23.3 18.6 1.0 23 10.4 SE 15 28 8 15 1018.8 1018.2 0.0
27/02:00pm 23.9 19.0 2.1 24 10.4 SSE 17 30 9 16 1019.5 1018.9 0.0
27/01:30pm 23.5 18.1 2.4 25 10.2 SE 20 30 11 16 1020.2 1019.5 0.0

Other Formats:

Comma delimited format used in spreadsheet applications
http://www.bom.gov.au/fwo/IDQ60801/IDQ60801.94255.axf

JavaScript Object Notation format (JSON) in row-major order
http://www.bom.gov.au/fwo/IDQ60801/IDQ60801.94255.json